sensor_id;sensor_type;location;lat;lon;timestamp;P1;durP1;ratioP1;P2;durP2;ratioP2
8580;SDS011;4328;48.622;9.230;2023-05-29T00:00:51;5.73;;;4.93;;
8580;SDS011;4328;48.622;9.230;2023-05-29T00:03:18;8.17;;;4.73;;
8580;SDS011;4328;48.622;9.230;2023-05-29T00:05:46;6.67;;;4.97;;
8580;SDS011;4328;48.622;9.230;2023-05-29T00:08:12;5.90;;;4.90;;
8580;SDS011;4328;48.622;9.230;2023-05-29T00:10:38;9.43;;;5.20;;
8580;SDS011;4328;48.622;9.230;2023-05-29T00:13:05;6.30;;;5.10;;
8580;SDS011;4328;48.622;9.230;2023-05-29T00:15:32;5.90;;;4.90;;
8580;SDS011;4328;48.622;9.230;2023-05-29T00:17:58;5.93;;;4.70;;
8580;SDS011;4328;48.622;9.230;2023-05-29T00:20:25;7.27;;;5.40;;
8580;SDS011;4328;48.622;9.230;2023-05-29T00:22:52;7.97;;;4.63;;
8580;SDS011;4328;48.622;9.230;2023-05-29T00:25:19;7.33;;;5.03;;
8580;SDS011;4328;48.622;9.230;2023-05-29T00:27:45;6.67;;;4.97;;
8580;SDS011;4328;48.622;9.230;2023-05-29T00:30:12;8.10;;;5.07;;
8580;SDS011;4328;48.622;9.230;2023-05-29T00:32:38;5.00;;;4.50;;
8580;SDS011;4328;48.622;9.230;2023-05-29T00:35:06;7.33;;;4.80;;
8580;SDS011;4328;48.622;9.230;2023-05-29T00:37:33;6.37;;;4.60;;
8580;SDS011;4328;48.622;9.230;2023-05-29T00:40:04;5.20;;;4.70;;
8580;SDS011;4328;48.622;9.230;2023-05-29T00:42:32;6.40;;;4.60;;
8580;SDS011;4328;48.622;9.230;2023-05-29T00:44:58;6.67;;;4.90;;
8580;SDS011;4328;48.622;9.230;2023-05-29T00:47:25;6.10;;;5.00;;
8580;SDS011;4328;48.622;9.230;2023-05-29T00:49:51;7.63;;;5.20;;
8580;SDS011;4328;48.622;9.230;2023-05-29T00:52:19;6.47;;;5.33;;
8580;SDS011;4328;48.622;9.230;2023-05-29T00:54:46;5.97;;;4.77;;
8580;SDS011;4328;48.622;9.230;2023-05-29T00:57:14;7.47;;;4.77;;
8580;SDS011;4328;48.622;9.230;2023-05-29T00:59:44;6.00;;;5.00;;
8580;SDS011;4328;48.622;9.230;2023-05-29T01:02:12;7.70;;;5.00;;
8580;SDS011;4328;48.622;9.230;2023-05-29T01:04:38;6.23;;;5.13;;
8580;SDS011;4328;48.622;9.230;2023-05-29T01:07:05;6.63;;;5.00;;
8580;SDS011;4328;48.622;9.230;2023-05-29T01:09:32;5.20;;;4.70;;
8580;SDS011;4328;48.622;9.230;2023-05-29T01:12:01;4.77;;;4.37;;
8580;SDS011;4328;48.622;9.230;2023-05-29T01:14:33;5.27;;;4.77;;
8580;SDS011;4328;48.622;9.230;2023-05-29T01:17:03;7.23;;;4.90;;
8580;SDS011;4328;48.622;9.230;2023-05-29T01:19:39;6.33;;;5.00;;
8580;SDS011;4328;48.622;9.230;2023-05-29T01:22:11;5.20;;;4.70;;
8580;SDS011;4328;48.622;9.230;2023-05-29T01:24:42;8.73;;;5.23;;
8580;SDS011;4328;48.622;9.230;2023-05-29T01:27:13;5.30;;;4.80;;
8580;SDS011;4328;48.622;9.230;2023-05-29T01:29:41;9.27;;;4.93;;
8580;SDS011;4328;48.622;9.230;2023-05-29T01:32:09;6.40;;;5.30;;
8580;SDS011;4328;48.622;9.230;2023-05-29T01:34:36;7.27;;;5.50;;
8580;SDS011;4328;48.622;9.230;2023-05-29T01:37:02;6.90;;;5.10;;
8580;SDS011;4328;48.622;9.230;2023-05-29T01:39:29;5.50;;;4.83;;
8580;SDS011;4328;48.622;9.230;2023-05-29T01:41:56;5.17;;;4.67;;
8580;SDS011;4328;48.622;9.230;2023-05-29T01:44:25;5.63;;;4.70;;
8580;SDS011;4328;48.622;9.230;2023-05-29T01:46:53;6.10;;;4.63;;
8580;SDS011;4328;48.622;9.230;2023-05-29T01:49:20;5.07;;;4.50;;
8580;SDS011;4328;48.622;9.230;2023-05-29T01:51:47;6.57;;;5.10;;
8580;SDS011;4328;48.622;9.230;2023-05-29T01:54:14;6.40;;;5.13;;
8580;SDS011;4328;48.622;9.230;2023-05-29T01:56:40;6.33;;;4.87;;
8580;SDS011;4328;48.622;9.230;2023-05-29T01:59:08;6.20;;;5.17;;
8580;SDS011;4328;48.622;9.230;2023-05-29T02:01:39;5.60;;;5.07;;
8580;SDS011;4328;48.622;9.230;2023-05-29T02:04:07;6.03;;;5.17;;
8580;SDS011;4328;48.622;9.230;2023-05-29T02:06:33;8.43;;;5.13;;
8580;SDS011;4328;48.622;9.230;2023-05-29T02:08:59;5.87;;;4.90;;
8580;SDS011;4328;48.622;9.230;2023-05-29T02:11:26;7.43;;;4.87;;
8580;SDS011;4328;48.622;9.230;2023-05-29T02:13:52;6.13;;;4.90;;
8580;SDS011;4328;48.622;9.230;2023-05-29T02:16:19;5.30;;;4.53;;
8580;SDS011;4328;48.622;9.230;2023-05-29T02:18:48;6.60;;;5.00;;
8580;SDS011;4328;48.622;9.230;2023-05-29T02:21:14;5.93;;;4.70;;
8580;SDS011;4328;48.622;9.230;2023-05-29T02:23:41;5.60;;;5.00;;
8580;SDS011;4328;48.622;9.230;2023-05-29T02:26:07;7.77;;;4.80;;
8580;SDS011;4328;48.622;9.230;2023-05-29T02:28:34;5.47;;;4.70;;
8580;SDS011;4328;48.622;9.230;2023-05-29T02:31:01;5.67;;;4.80;;
8580;SDS011;4328;48.622;9.230;2023-05-29T02:33:28;7.90;;;5.43;;
8580;SDS011;4328;48.622;9.230;2023-05-29T02:35:56;5.83;;;4.77;;
8580;SDS011;4328;48.622;9.230;2023-05-29T02:38:23;8.37;;;4.83;;
8580;SDS011;4328;48.622;9.230;2023-05-29T02:40:49;6.73;;;4.73;;
8580;SDS011;4328;48.622;9.230;2023-05-29T02:43:16;6.43;;;5.10;;
8580;SDS011;4328;48.622;9.230;2023-05-29T02:45:42;6.30;;;5.10;;
8580;SDS011;4328;48.622;9.230;2023-05-29T02:48:09;5.77;;;5.17;;
8580;SDS011;4328;48.622;9.230;2023-05-29T02:50:36;6.13;;;5.00;;
8580;SDS011;4328;48.622;9.230;2023-05-29T02:53:03;5.57;;;5.07;;
8580;SDS011;4328;48.622;9.230;2023-05-29T02:55:30;6.97;;;4.63;;
8580;SDS011;4328;48.622;9.230;2023-05-29T02:58:01;6.00;;;5.20;;
8580;SDS011;4328;48.622;9.230;2023-05-29T03:00:27;4.90;;;4.17;;
8580;SDS011;4328;48.622;9.230;2023-05-29T03:02:54;6.57;;;4.57;;
8580;SDS011;4328;48.622;9.230;2023-05-29T03:05:21;7.17;;;4.97;;
8580;SDS011;4328;48.622;9.230;2023-05-29T03:07:47;6.07;;;5.00;;
8580;SDS011;4328;48.622;9.230;2023-05-29T03:10:16;5.40;;;4.90;;
8580;SDS011;4328;48.622;9.230;2023-05-29T03:12:43;5.50;;;4.83;;
8580;SDS011;4328;48.622;9.230;2023-05-29T03:15:10;8.87;;;5.10;;
8580;SDS011;4328;48.622;9.230;2023-05-29T03:17:37;7.20;;;4.87;;
8580;SDS011;4328;48.622;9.230;2023-05-29T03:20:04;5.70;;;4.77;;
8580;SDS011;4328;48.622;9.230;2023-05-29T03:22:31;4.90;;;4.20;;
8580;SDS011;4328;48.622;9.230;2023-05-29T03:24:58;5.43;;;4.73;;
8580;SDS011;4328;48.622;9.230;2023-05-29T03:27:25;5.20;;;4.70;;
8580;SDS011;4328;48.622;9.230;2023-05-29T03:29:52;5.53;;;4.87;;
8580;SDS011;4328;48.622;9.230;2023-05-29T03:32:20;6.57;;;5.00;;
8580;SDS011;4328;48.622;9.230;2023-05-29T03:34:46;6.10;;;4.67;;
8580;SDS011;4328;48.622;9.230;2023-05-29T03:37:12;5.77;;;4.77;;
8580;SDS011;4328;48.622;9.230;2023-05-29T03:39:39;6.20;;;5.00;;
8580;SDS011;4328;48.622;9.230;2023-05-29T03:42:05;6.53;;;5.13;;
8580;SDS011;4328;48.622;9.230;2023-05-29T03:44:33;4.90;;;4.40;;
8580;SDS011;4328;48.622;9.230;2023-05-29T03:46:59;5.40;;;4.30;;
8580;SDS011;4328;48.622;9.230;2023-05-29T03:49:26;5.83;;;4.90;;
8580;SDS011;4328;48.622;9.230;2023-05-29T03:51:52;4.77;;;4.27;;
8580;SDS011;4328;48.622;9.230;2023-05-29T03:54:19;6.17;;;4.90;;
8580;SDS011;4328;48.622;9.230;2023-05-29T03:56:45;5.23;;;4.73;;
8580;SDS011;4328;48.622;9.230;2023-05-29T03:59:12;6.40;;;4.90;;
8580;SDS011;4328;48.622;9.230;2023-05-29T04:01:40;5.20;;;4.60;;
8580;SDS011;4328;48.622;9.230;2023-05-29T04:04:07;7.03;;;5.00;;
8580;SDS011;4328;48.622;9.230;2023-05-29T04:06:33;6.57;;;4.53;;
8580;SDS011;4328;48.622;9.230;2023-05-29T04:09:03;5.27;;;4.77;;
8580;SDS011;4328;48.622;9.230;2023-05-29T04:11:30;6.23;;;4.60;;
8580;SDS011;4328;48.622;9.230;2023-05-29T04:13:59;5.70;;;4.70;;
8580;SDS011;4328;48.622;9.230;2023-05-29T04:16:25;6.30;;;4.67;;
8580;SDS011;4328;48.622;9.230;2023-05-29T04:18:53;6.27;;;4.50;;
8580;SDS011;4328;48.622;9.230;2023-05-29T04:21:20;5.73;;;4.63;;
8580;SDS011;4328;48.622;9.230;2023-05-29T04:23:46;6.97;;;4.53;;
8580;SDS011;4328;48.622;9.230;2023-05-29T04:26:12;8.93;;;4.80;;
8580;SDS011;4328;48.622;9.230;2023-05-29T04:28:39;6.37;;;4.97;;
8580;SDS011;4328;48.622;9.230;2023-05-29T04:31:07;5.77;;;4.40;;
8580;SDS011;4328;48.622;9.230;2023-05-29T04:33:39;6.23;;;4.90;;
8580;SDS011;4328;48.622;9.230;2023-05-29T04:36:07;6.13;;;4.73;;
8580;SDS011;4328;48.622;9.230;2023-05-29T04:38:36;7.90;;;4.70;;
8580;SDS011;4328;48.622;9.230;2023-05-29T04:41:02;5.23;;;4.60;;
8580;SDS011;4328;48.622;9.230;2023-05-29T04:43:29;5.07;;;4.47;;
8580;SDS011;4328;48.622;9.230;2023-05-29T04:45:55;5.87;;;4.47;;
8580;SDS011;4328;48.622;9.230;2023-05-29T04:48:22;5.20;;;4.60;;
8580;SDS011;4328;48.622;9.230;2023-05-29T04:50:50;5.20;;;4.70;;
8580;SDS011;4328;48.622;9.230;2023-05-29T04:53:17;5.67;;;4.97;;
8580;SDS011;4328;48.622;9.230;2023-05-29T04:55:44;5.97;;;4.73;;
8580;SDS011;4328;48.622;9.230;2023-05-29T04:58:11;6.37;;;4.73;;
8580;SDS011;4328;48.622;9.230;2023-05-29T05:00:38;5.67;;;4.50;;
8580;SDS011;4328;48.622;9.230;2023-05-29T05:03:04;5.63;;;4.37;;
8580;SDS011;4328;48.622;9.230;2023-05-29T05:05:31;5.90;;;4.53;;
8580;SDS011;4328;48.622;9.230;2023-05-29T05:08:00;5.77;;;4.37;;
8580;SDS011;4328;48.622;9.230;2023-05-29T05:10:29;6.13;;;4.70;;
8580;SDS011;4328;48.622;9.230;2023-05-29T05:12:55;5.93;;;4.73;;
8580;SDS011;4328;48.622;9.230;2023-05-29T05:15:22;5.03;;;4.63;;
8580;SDS011;4328;48.622;9.230;2023-05-29T05:17:48;4.90;;;4.10;;
8580;SDS011;4328;48.622;9.230;2023-05-29T05:20:14;5.10;;;4.57;;
8580;SDS011;4328;48.622;9.230;2023-05-29T05:22:41;6.37;;;4.47;;
8580;SDS011;4328;48.622;9.230;2023-05-29T05:25:08;5.70;;;5.10;;
8580;SDS011;4328;48.622;9.230;2023-05-29T05:27:35;5.73;;;4.50;;
8580;SDS011;4328;48.622;9.230;2023-05-29T05:30:02;5.87;;;4.80;;
8580;SDS011;4328;48.622;9.230;2023-05-29T05:32:28;6.43;;;4.80;;
8580;SDS011;4328;48.622;9.230;2023-05-29T05:34:55;5.17;;;4.57;;
8580;SDS011;4328;48.622;9.230;2023-05-29T05:37:21;4.97;;;4.30;;
8580;SDS011;4328;48.622;9.230;2023-05-29T05:39:48;4.97;;;4.43;;
8580;SDS011;4328;48.622;9.230;2023-05-29T05:42:14;5.87;;;4.80;;
8580;SDS011;4328;48.622;9.230;2023-05-29T05:44:42;5.70;;;4.60;;
8580;SDS011;4328;48.622;9.230;2023-05-29T05:47:11;4.90;;;4.27;;
8580;SDS011;4328;48.622;9.230;2023-05-29T05:49:38;6.00;;;4.87;;
8580;SDS011;4328;48.622;9.230;2023-05-29T05:52:05;5.13;;;4.57;;
8580;SDS011;4328;48.622;9.230;2023-05-29T05:54:32;6.00;;;4.97;;
8580;SDS011;4328;48.622;9.230;2023-05-29T05:56:58;6.63;;;4.33;;
8580;SDS011;4328;48.622;9.230;2023-05-29T05:59:25;5.30;;;4.80;;
8580;SDS011;4328;48.622;9.230;2023-05-29T06:01:53;5.20;;;4.67;;
8580;SDS011;4328;48.622;9.230;2023-05-29T06:04:19;8.60;;;5.03;;
8580;SDS011;4328;48.622;9.230;2023-05-29T06:06:46;5.80;;;4.00;;
8580;SDS011;4328;48.622;9.230;2023-05-29T06:09:12;5.03;;;4.30;;
8580;SDS011;4328;48.622;9.230;2023-05-29T06:11:39;5.93;;;4.60;;
8580;SDS011;4328;48.622;9.230;2023-05-29T06:14:05;5.20;;;4.70;;
8580;SDS011;4328;48.622;9.230;2023-05-29T06:16:32;6.53;;;4.67;;
8580;SDS011;4328;48.622;9.230;2023-05-29T06:19:00;8.07;;;4.43;;
8580;SDS011;4328;48.622;9.230;2023-05-29T06:21:27;5.63;;;4.63;;
8580;SDS011;4328;48.622;9.230;2023-05-29T06:23:53;5.73;;;4.37;;
8580;SDS011;4328;48.622;9.230;2023-05-29T06:26:20;5.57;;;4.50;;
8580;SDS011;4328;48.622;9.230;2023-05-29T06:28:46;6.33;;;4.63;;
8580;SDS011;4328;48.622;9.230;2023-05-29T06:31:12;5.30;;;4.43;;
8580;SDS011;4328;48.622;9.230;2023-05-29T06:33:39;5.00;;;4.30;;
8580;SDS011;4328;48.622;9.230;2023-05-29T06:36:07;5.37;;;4.20;;
8580;SDS011;4328;48.622;9.230;2023-05-29T06:38:33;5.30;;;4.53;;
8580;SDS011;4328;48.622;9.230;2023-05-29T06:41:00;5.30;;;4.80;;
8580;SDS011;4328;48.622;9.230;2023-05-29T06:43:26;6.13;;;4.50;;
8580;SDS011;4328;48.622;9.230;2023-05-29T06:45:53;6.83;;;5.10;;
8580;SDS011;4328;48.622;9.230;2023-05-29T06:48:20;7.80;;;5.20;;
8580;SDS011;4328;48.622;9.230;2023-05-29T06:50:47;6.33;;;5.47;;
8580;SDS011;4328;48.622;9.230;2023-05-29T06:53:14;8.30;;;5.17;;
8580;SDS011;4328;48.622;9.230;2023-05-29T06:55:41;6.73;;;5.27;;
8580;SDS011;4328;48.622;9.230;2023-05-29T06:58:07;5.80;;;5.00;;
8580;SDS011;4328;48.622;9.230;2023-05-29T07:00:34;6.83;;;5.10;;
8580;SDS011;4328;48.622;9.230;2023-05-29T07:03:01;5.77;;;4.80;;
8580;SDS011;4328;48.622;9.230;2023-05-29T07:05:27;5.80;;;5.10;;
8580;SDS011;4328;48.622;9.230;2023-05-29T07:07:54;7.07;;;4.87;;
8580;SDS011;4328;48.622;9.230;2023-05-29T07:10:21;7.27;;;5.03;;
8580;SDS011;4328;48.622;9.230;2023-05-29T07:12:48;7.63;;;5.30;;
8580;SDS011;4328;48.622;9.230;2023-05-29T07:15:14;11.00;;;5.87;;
8580;SDS011;4328;48.622;9.230;2023-05-29T07:17:41;5.23;;;4.47;;
8580;SDS011;4328;48.622;9.230;2023-05-29T07:20:07;8.07;;;5.10;;
8580;SDS011;4328;48.622;9.230;2023-05-29T07:22:34;8.57;;;4.70;;
8580;SDS011;4328;48.622;9.230;2023-05-29T07:25:00;5.60;;;4.30;;
8580;SDS011;4328;48.622;9.230;2023-05-29T07:27:28;5.23;;;4.20;;
8580;SDS011;4328;48.622;9.230;2023-05-29T07:29:55;5.20;;;4.30;;
8580;SDS011;4328;48.622;9.230;2023-05-29T07:32:21;6.27;;;4.60;;
8580;SDS011;4328;48.622;9.230;2023-05-29T07:34:48;8.33;;;4.30;;
8580;SDS011;4328;48.622;9.230;2023-05-29T07:37:15;5.73;;;4.53;;
8580;SDS011;4328;48.622;9.230;2023-05-29T07:39:44;5.17;;;4.20;;
8580;SDS011;4328;48.622;9.230;2023-05-29T07:42:10;5.53;;;4.27;;
8580;SDS011;4328;48.622;9.230;2023-05-29T07:44:38;6.10;;;4.47;;
8580;SDS011;4328;48.622;9.230;2023-05-29T07:47:06;5.47;;;4.10;;
8580;SDS011;4328;48.622;9.230;2023-05-29T07:49:33;5.50;;;4.53;;
8580;SDS011;4328;48.622;9.230;2023-05-29T07:52:00;4.60;;;4.20;;
8580;SDS011;4328;48.622;9.230;2023-05-29T07:54:27;4.53;;;4.03;;
8580;SDS011;4328;48.622;9.230;2023-05-29T07:56:53;5.07;;;4.17;;
8580;SDS011;4328;48.622;9.230;2023-05-29T07:59:20;4.00;;;3.60;;
8580;SDS011;4328;48.622;9.230;2023-05-29T08:01:48;6.05;;;4.15;;
8580;SDS011;4328;48.622;9.230;2023-05-29T08:04:15;5.93;;;4.50;;
8580;SDS011;4328;48.622;9.230;2023-05-29T08:06:41;6.13;;;3.88;;
8580;SDS011;4328;48.622;9.230;2023-05-29T08:09:08;4.97;;;4.13;;
8580;SDS011;4328;48.622;9.230;2023-05-29T08:11:35;4.85;;;3.70;;
8580;SDS011;4328;48.622;9.230;2023-05-29T08:14:01;5.15;;;4.15;;
8580;SDS011;4328;48.622;9.230;2023-05-29T08:16:28;4.25;;;3.90;;
8580;SDS011;4328;48.622;9.230;2023-05-29T08:18:55;6.35;;;3.85;;
8580;SDS011;4328;48.622;9.230;2023-05-29T08:21:22;5.53;;;4.28;;
8580;SDS011;4328;48.622;9.230;2023-05-29T08:23:48;6.55;;;4.57;;
8580;SDS011;4328;48.622;9.230;2023-05-29T08:26:15;5.00;;;4.50;;
8580;SDS011;4328;48.622;9.230;2023-05-29T08:28:41;4.78;;;4.35;;
8580;SDS011;4328;48.622;9.230;2023-05-29T08:31:07;4.70;;;4.18;;
8580;SDS011;4328;48.622;9.230;2023-05-29T08:33:34;3.90;;;3.60;;
8580;SDS011;4328;48.622;9.230;2023-05-29T08:36:03;6.10;;;4.38;;
8580;SDS011;4328;48.622;9.230;2023-05-29T08:38:29;6.03;;;4.10;;
8580;SDS011;4328;48.622;9.230;2023-05-29T08:40:56;4.60;;;4.07;;
8580;SDS011;4328;48.622;9.230;2023-05-29T08:43:23;5.20;;;4.03;;
8580;SDS011;4328;48.622;9.230;2023-05-29T08:45:52;4.63;;;4.03;;
8580;SDS011;4328;48.622;9.230;2023-05-29T08:48:22;4.60;;;3.63;;
8580;SDS011;4328;48.622;9.230;2023-05-29T08:50:49;5.47;;;4.47;;
8580;SDS011;4328;48.622;9.230;2023-05-29T08:53:18;4.55;;;3.92;;
8580;SDS011;4328;48.622;9.230;2023-05-29T08:55:45;4.53;;;3.95;;
8580;SDS011;4328;48.622;9.230;2023-05-29T08:58:13;5.20;;;4.07;;
8580;SDS011;4328;48.622;9.230;2023-05-29T09:00:40;4.47;;;4.03;;
8580;SDS011;4328;48.622;9.230;2023-05-29T09:03:07;4.00;;;3.70;;
8580;SDS011;4328;48.622;9.230;2023-05-29T09:05:33;4.93;;;3.67;;
8580;SDS011;4328;48.622;9.230;2023-05-29T09:08:04;4.85;;;4.35;;
8580;SDS011;4328;48.622;9.230;2023-05-29T09:10:33;4.47;;;4.05;;
8580;SDS011;4328;48.622;9.230;2023-05-29T09:12:59;4.30;;;3.90;;
8580;SDS011;4328;48.622;9.230;2023-05-29T09:15:26;5.80;;;3.95;;
8580;SDS011;4328;48.622;9.230;2023-05-29T09:17:53;5.38;;;4.25;;
8580;SDS011;4328;48.622;9.230;2023-05-29T09:20:21;6.78;;;3.97;;
8580;SDS011;4328;48.622;9.230;2023-05-29T09:22:52;4.53;;;4.10;;
8580;SDS011;4328;48.622;9.230;2023-05-29T09:25:20;4.15;;;3.75;;
8580;SDS011;4328;48.622;9.230;2023-05-29T09:27:50;5.60;;;3.95;;
8580;SDS011;4328;48.622;9.230;2023-05-29T09:30:30;4.20;;;3.80;;
8580;SDS011;4328;48.622;9.230;2023-05-29T09:32:58;4.28;;;3.83;;
8580;SDS011;4328;48.622;9.230;2023-05-29T09:35:24;5.30;;;3.67;;
8580;SDS011;4328;48.622;9.230;2023-05-29T09:37:51;4.97;;;3.88;;
8580;SDS011;4328;48.622;9.230;2023-05-29T09:40:18;4.90;;;3.50;;
8580;SDS011;4328;48.622;9.230;2023-05-29T09:42:44;5.00;;;3.50;;
8580;SDS011;4328;48.622;9.230;2023-05-29T09:45:14;4.25;;;3.70;;
8580;SDS011;4328;48.622;9.230;2023-05-29T09:47:42;4.60;;;3.80;;
8580;SDS011;4328;48.622;9.230;2023-05-29T09:50:11;4.10;;;3.70;;
8580;SDS011;4328;48.622;9.230;2023-05-29T09:52:45;5.00;;;3.90;;
8580;SDS011;4328;48.622;9.230;2023-05-29T09:55:12;3.65;;;3.15;;
8580;SDS011;4328;48.622;9.230;2023-05-29T09:57:40;4.45;;;3.90;;
8580;SDS011;4328;48.622;9.230;2023-05-29T10:00:07;4.10;;;3.70;;
8580;SDS011;4328;48.622;9.230;2023-05-29T10:02:39;5.30;;;4.90;;
8580;SDS011;4328;48.622;9.230;2023-05-29T10:05:06;5.25;;;3.90;;
8580;SDS011;4328;48.622;9.230;2023-05-29T10:07:33;5.22;;;3.90;;
8580;SDS011;4328;48.622;9.230;2023-05-29T10:10:02;4.97;;;3.78;;
8580;SDS011;4328;48.622;9.230;2023-05-29T10:12:29;4.00;;;3.70;;
8580;SDS011;4328;48.622;9.230;2023-05-29T10:14:57;3.78;;;3.38;;
8580;SDS011;4328;48.622;9.230;2023-05-29T10:17:25;4.57;;;3.47;;
8580;SDS011;4328;48.622;9.230;2023-05-29T10:19:54;4.65;;;3.70;;
8580;SDS011;4328;48.622;9.230;2023-05-29T10:22:21;4.07;;;3.47;;
8580;SDS011;4328;48.622;9.230;2023-05-29T10:24:50;4.95;;;3.55;;
8580;SDS011;4328;48.622;9.230;2023-05-29T10:27:17;5.32;;;3.33;;
8580;SDS011;4328;48.622;9.230;2023-05-29T10:29:46;4.68;;;3.45;;
8580;SDS011;4328;48.622;9.230;2023-05-29T10:32:20;6.43;;;3.30;;
8580;SDS011;4328;48.622;9.230;2023-05-29T10:34:48;3.95;;;3.45;;
8580;SDS011;4328;48.622;9.230;2023-05-29T10:37:21;3.25;;;3.00;;
8580;SDS011;4328;48.622;9.230;2023-05-29T10:39:50;3.65;;;3.20;;
8580;SDS011;4328;48.622;9.230;2023-05-29T10:45:00;3.78;;;3.10;;
8580;SDS011;4328;48.622;9.230;2023-05-29T10:47:27;5.95;;;3.70;;
8580;SDS011;4328;48.622;9.230;2023-05-29T10:49:53;4.28;;;3.47;;
8580;SDS011;4328;48.622;9.230;2023-05-29T10:52:26;6.13;;;3.67;;
8580;SDS011;4328;48.622;9.230;2023-05-29T10:54:56;5.10;;;3.72;;
8580;SDS011;4328;48.622;9.230;2023-05-29T10:57:23;4.80;;;3.30;;
8580;SDS011;4328;48.622;9.230;2023-05-29T10:59:59;3.83;;;3.47;;
8580;SDS011;4328;48.622;9.230;2023-05-29T11:02:25;4.47;;;3.28;;
8580;SDS011;4328;48.622;9.230;2023-05-29T11:07:55;4.20;;;2.83;;
8580;SDS011;4328;48.622;9.230;2023-05-29T11:13:07;4.30;;;2.95;;
8580;SDS011;4328;48.622;9.230;2023-05-29T11:15:33;2.95;;;2.65;;
8580;SDS011;4328;48.622;9.230;2023-05-29T11:18:05;3.13;;;2.75;;
8580;SDS011;4328;48.622;9.230;2023-05-29T11:20:42;3.38;;;3.08;;
8580;SDS011;4328;48.622;9.230;2023-05-29T11:23:13;3.15;;;2.85;;
8580;SDS011;4328;48.622;9.230;2023-05-29T11:25:43;3.65;;;2.65;;
8580;SDS011;4328;48.622;9.230;2023-05-29T11:28:10;3.08;;;2.88;;
8580;SDS011;4328;48.622;9.230;2023-05-29T11:30:43;3.63;;;3.17;;
8580;SDS011;4328;48.622;9.230;2023-05-29T11:33:12;3.28;;;2.95;;
8580;SDS011;4328;48.622;9.230;2023-05-29T11:35:41;4.50;;;2.95;;
8580;SDS011;4328;48.622;9.230;2023-05-29T11:38:07;3.63;;;3.05;;
8580;SDS011;4328;48.622;9.230;2023-05-29T11:40:36;3.45;;;3.13;;
8580;SDS011;4328;48.622;9.230;2023-05-29T11:43:03;3.30;;;3.00;;
8580;SDS011;4328;48.622;9.230;2023-05-29T11:45:31;3.72;;;3.05;;
8580;SDS011;4328;48.622;9.230;2023-05-29T11:47:58;3.60;;;2.90;;
8580;SDS011;4328;48.622;9.230;2023-05-29T11:50:25;3.45;;;3.10;;
8580;SDS011;4328;48.622;9.230;2023-05-29T11:52:52;3.45;;;3.15;;
8580;SDS011;4328;48.622;9.230;2023-05-29T11:55:19;3.53;;;2.88;;
8580;SDS011;4328;48.622;9.230;2023-05-29T11:57:47;4.43;;;2.90;;
8580;SDS011;4328;48.622;9.230;2023-05-29T12:00:14;4.45;;;2.88;;
8580;SDS011;4328;48.622;9.230;2023-05-29T12:02:41;4.13;;;2.72;;
8580;SDS011;4328;48.622;9.230;2023-05-29T12:05:08;3.40;;;3.10;;
8580;SDS011;4328;48.622;9.230;2023-05-29T12:07:37;3.85;;;2.88;;
8580;SDS011;4328;48.622;9.230;2023-05-29T12:10:10;3.05;;;2.78;;
8580;SDS011;4328;48.622;9.230;2023-05-29T12:12:36;2.95;;;2.70;;
8580;SDS011;4328;48.622;9.230;2023-05-29T12:15:06;3.30;;;3.10;;
8580;SDS011;4328;48.622;9.230;2023-05-29T12:17:33;3.33;;;2.85;;
8580;SDS011;4328;48.622;9.230;2023-05-29T12:20:00;2.83;;;2.63;;
8580;SDS011;4328;48.622;9.230;2023-05-29T12:22:32;3.50;;;2.83;;
8580;SDS011;4328;48.622;9.230;2023-05-29T12:25:02;3.30;;;2.95;;
8580;SDS011;4328;48.622;9.230;2023-05-29T12:27:30;3.30;;;2.80;;
8580;SDS011;4328;48.622;9.230;2023-05-29T12:29:59;3.38;;;3.08;;
8580;SDS011;4328;48.622;9.230;2023-05-29T12:32:35;3.03;;;2.80;;
8580;SDS011;4328;48.622;9.230;2023-05-29T12:35:01;4.30;;;3.00;;
8580;SDS011;4328;48.622;9.230;2023-05-29T12:37:29;2.80;;;2.60;;
8580;SDS011;4328;48.622;9.230;2023-05-29T12:40:08;4.97;;;2.72;;
8580;SDS011;4328;48.622;9.230;2023-05-29T12:42:37;2.85;;;2.65;;
8580;SDS011;4328;48.622;9.230;2023-05-29T12:45:03;4.80;;;2.83;;
8580;SDS011;4328;48.622;9.230;2023-05-29T12:47:32;3.67;;;2.70;;
8580;SDS011;4328;48.622;9.230;2023-05-29T12:49:59;3.33;;;2.70;;
8580;SDS011;4328;48.622;9.230;2023-05-29T12:52:27;2.90;;;2.70;;
8580;SDS011;4328;48.622;9.230;2023-05-29T12:54:53;3.15;;;2.85;;
8580;SDS011;4328;48.622;9.230;2023-05-29T12:57:20;4.47;;;2.90;;
8580;SDS011;4328;48.622;9.230;2023-05-29T12:59:47;4.53;;;2.70;;
8580;SDS011;4328;48.622;9.230;2023-05-29T13:02:13;4.50;;;2.83;;
8580;SDS011;4328;48.622;9.230;2023-05-29T13:04:41;3.88;;;3.10;;
8580;SDS011;4328;48.622;9.230;2023-05-29T13:07:08;3.08;;;2.83;;
8580;SDS011;4328;48.622;9.230;2023-05-29T13:09:35;3.80;;;2.80;;
8580;SDS011;4328;48.622;9.230;2023-05-29T13:12:01;2.83;;;2.55;;
8580;SDS011;4328;48.622;9.230;2023-05-29T13:14:28;3.67;;;2.95;;
8580;SDS011;4328;48.622;9.230;2023-05-29T13:16:54;2.78;;;2.58;;
8580;SDS011;4328;48.622;9.230;2023-05-29T13:19:21;4.00;;;2.75;;
8580;SDS011;4328;48.622;9.230;2023-05-29T13:21:47;4.32;;;3.00;;
8580;SDS011;4328;48.622;9.230;2023-05-29T13:24:16;3.63;;;3.22;;
8580;SDS011;4328;48.622;9.230;2023-05-29T13:26:42;3.15;;;2.85;;
8580;SDS011;4328;48.622;9.230;2023-05-29T13:29:09;3.03;;;2.78;;
8580;SDS011;4328;48.622;9.230;2023-05-29T13:31:35;3.90;;;2.92;;
8580;SDS011;4328;48.622;9.230;2023-05-29T13:34:01;3.05;;;2.78;;
8580;SDS011;4328;48.622;9.230;2023-05-29T13:36:28;3.05;;;2.83;;
8580;SDS011;4328;48.622;9.230;2023-05-29T13:38:54;3.63;;;2.90;;
8580;SDS011;4328;48.622;9.230;2023-05-29T13:41:22;3.30;;;2.80;;
8580;SDS011;4328;48.622;9.230;2023-05-29T13:43:48;3.40;;;3.20;;
8580;SDS011;4328;48.622;9.230;2023-05-29T13:46:14;6.63;;;2.92;;
8580;SDS011;4328;48.622;9.230;2023-05-29T13:48:41;3.53;;;3.25;;
8580;SDS011;4328;48.622;9.230;2023-05-29T13:51:07;3.35;;;2.60;;
8580;SDS011;4328;48.622;9.230;2023-05-29T13:53:34;3.40;;;3.10;;
8580;SDS011;4328;48.622;9.230;2023-05-29T13:56:00;4.72;;;3.20;;
8580;SDS011;4328;48.622;9.230;2023-05-29T13:58:28;3.30;;;3.05;;
8580;SDS011;4328;48.622;9.230;2023-05-29T14:00:54;3.20;;;2.90;;
8580;SDS011;4328;48.622;9.230;2023-05-29T14:03:21;6.22;;;3.30;;
8580;SDS011;4328;48.622;9.230;2023-05-29T14:05:50;3.13;;;2.80;;
8580;SDS011;4328;48.622;9.230;2023-05-29T14:08:16;3.45;;;3.15;;
8580;SDS011;4328;48.622;9.230;2023-05-29T14:10:43;4.75;;;3.25;;
8580;SDS011;4328;48.622;9.230;2023-05-29T14:13:09;4.38;;;3.60;;
8580;SDS011;4328;48.622;9.230;2023-05-29T14:15:37;4.75;;;3.10;;
8580;SDS011;4328;48.622;9.230;2023-05-29T14:18:03;2.90;;;2.70;;
8580;SDS011;4328;48.622;9.230;2023-05-29T14:20:30;4.72;;;3.10;;
8580;SDS011;4328;48.622;9.230;2023-05-29T14:22:56;3.35;;;3.00;;
8580;SDS011;4328;48.622;9.230;2023-05-29T14:25:23;3.60;;;3.25;;
8580;SDS011;4328;48.622;9.230;2023-05-29T14:27:49;3.33;;;2.90;;
8580;SDS011;4328;48.622;9.230;2023-05-29T14:30:17;3.42;;;3.10;;
8580;SDS011;4328;48.622;9.230;2023-05-29T14:32:45;3.85;;;3.55;;
8580;SDS011;4328;48.622;9.230;2023-05-29T14:35:11;4.00;;;3.70;;
8580;SDS011;4328;48.622;9.230;2023-05-29T14:37:38;4.25;;;3.20;;
8580;SDS011;4328;48.622;9.230;2023-05-29T14:40:04;3.75;;;3.45;;
8580;SDS011;4328;48.622;9.230;2023-05-29T14:42:31;3.28;;;3.03;;
8580;SDS011;4328;48.622;9.230;2023-05-29T14:44:58;4.70;;;3.35;;
8580;SDS011;4328;48.622;9.230;2023-05-29T14:47:25;3.75;;;3.35;;
8580;SDS011;4328;48.622;9.230;2023-05-29T14:49:53;3.55;;;3.25;;
8580;SDS011;4328;48.622;9.230;2023-05-29T14:52:19;4.95;;;3.40;;
8580;SDS011;4328;48.622;9.230;2023-05-29T14:54:45;3.88;;;3.55;;
8580;SDS011;4328;48.622;9.230;2023-05-29T14:57:12;3.83;;;3.40;;
8580;SDS011;4328;48.622;9.230;2023-05-29T14:59:38;3.92;;;3.17;;
8580;SDS011;4328;48.622;9.230;2023-05-29T15:02:05;5.35;;;3.17;;
8580;SDS011;4328;48.622;9.230;2023-05-29T15:04:31;5.10;;;3.53;;
8580;SDS011;4328;48.622;9.230;2023-05-29T15:06:59;3.80;;;3.50;;
8580;SDS011;4328;48.622;9.230;2023-05-29T15:09:26;3.53;;;3.22;;
8580;SDS011;4328;48.622;9.230;2023-05-29T15:11:52;3.75;;;3.45;;
8580;SDS011;4328;48.622;9.230;2023-05-29T15:14:19;4.72;;;3.30;;
8580;SDS011;4328;48.622;9.230;2023-05-29T15:16:45;4.22;;;3.17;;
8580;SDS011;4328;48.622;9.230;2023-05-29T15:19:12;3.85;;;3.55;;
8580;SDS011;4328;48.622;9.230;2023-05-29T15:21:38;4.25;;;3.58;;
8580;SDS011;4328;48.622;9.230;2023-05-29T15:24:06;3.95;;;3.47;;